createdAt,value
2019-04-07T00:01:09.107Z,110.97
2019-04-07T00:03:38.980Z,105.92
2019-04-07T00:06:08.204Z,119.95
2019-04-07T00:08:37.683Z,105.07
2019-04-07T00:11:07.017Z,110.80
2019-04-07T00:13:36.488Z,109.27
2019-04-07T00:16:05.685Z,101.02
2019-04-07T00:18:34.910Z,119.00
2019-04-07T00:21:04.091Z,114.75
2019-04-07T00:23:33.681Z,114.10
2019-04-07T00:26:02.886Z,120.10
2019-04-07T00:28:32.511Z,108.47
2019-04-07T00:31:02.393Z,110.43
2019-04-07T00:33:32.219Z,108.12
2019-04-07T00:36:01.438Z,103.50
2019-04-07T00:38:30.642Z,108.22
2019-04-07T00:41:00.168Z,114.25
2019-04-07T00:43:29.642Z,112.62
2019-04-07T00:45:58.878Z,102.80
2019-04-07T00:48:28.638Z,105.45
2019-04-07T00:50:57.948Z,103.07
2019-04-07T00:53:27.275Z,110.37
2019-04-07T00:55:56.480Z,106.63
2019-04-07T00:58:25.744Z,108.05
2019-04-07T01:00:55.184Z,111.90
2019-04-07T01:03:24.893Z,118.60
2019-04-07T01:05:54.478Z,104.58
2019-04-07T01:08:23.660Z,102.27
2019-04-07T01:10:53.312Z,111.42
2019-04-07T01:13:23.099Z,108.97
2019-04-07T01:15:52.318Z,103.60
2019-04-07T01:18:21.601Z,106.65
2019-04-07T01:20:50.849Z,102.92
2019-04-07T01:23:20.223Z,108.40
2019-04-07T01:25:50.160Z,106.30
2019-04-07T01:28:19.822Z,104.00
2019-04-07T01:30:49.150Z,102.23
2019-04-07T01:33:18.460Z,104.30
2019-04-07T01:35:49.266Z,116.00
2019-04-07T01:38:18.544Z,110.75
2019-04-07T01:40:58.340Z,101.58
2019-04-07T01:43:31.792Z,102.42
2019-04-07T01:46:17.633Z,104.50
2019-04-07T01:49:00.190Z,110.32
2019-04-07T01:51:48.835Z,98.58
2019-04-07T01:54:22.970Z,100.92
2019-04-07T01:56:56.916Z,108.35
2019-04-07T01:59:44.349Z,94.80
2019-04-07T02:02:21.278Z,106.47
2019-04-07T02:04:58.155Z,97.85
2019-04-07T02:07:43.872Z,106.87
2019-04-07T02:10:32.643Z,103.62
2019-04-07T02:13:15.330Z,101.45
2019-04-07T02:15:52.692Z,94.60
2019-04-07T02:18:26.329Z,98.58
2019-04-07T02:21:15.225Z,97.67
2019-04-07T02:23:46.184Z,93.07
2019-04-07T02:26:23.564Z,102.47
2019-04-07T02:29:03.866Z,91.40
2019-04-07T02:31:38.221Z,93.37
2019-04-07T02:34:11.953Z,98.70
2019-04-07T02:36:43.214Z,105.55
2019-04-07T02:39:14.161Z,97.05
2019-04-07T02:41:45.587Z,90.07
2019-04-07T02:44:20.380Z,94.92
2019-04-07T02:46:51.676Z,97.85
2019-04-07T02:49:22.617Z,102.42
2019-04-07T02:51:54.217Z,97.88
2019-04-07T02:54:43.304Z,98.00
2019-04-07T02:57:18.904Z,98.03
2019-04-07T02:59:55.878Z,96.80
2019-04-07T03:02:41.620Z,97.08
2019-04-07T03:05:29.534Z,97.62
2019-04-07T03:08:01.542Z,105.92
2019-04-07T03:10:47.662Z,102.30
2019-04-07T03:13:24.453Z,99.87
2019-04-07T03:15:55.376Z,100.85
2019-04-07T03:18:39.033Z,105.47
2019-04-07T03:21:13.191Z,102.72
2019-04-07T03:23:44.181Z,102.50
2019-04-07T03:26:18.403Z,100.95
2019-04-07T03:28:58.198Z,98.78
2019-04-07T03:31:46.824Z,96.10
2019-04-07T03:34:26.071Z,99.28
2019-04-07T03:37:24.326Z,91.47
2019-04-07T03:39:46.119Z,101.10
2019-04-07T03:42:20.017Z,94.22
2019-04-07T03:44:53.698Z,94.15
2019-04-07T03:47:25.792Z,92.27
2019-04-07T03:49:57.180Z,95.40
2019-04-07T03:52:34.078Z,95.75
2019-04-07T03:55:04.945Z,94.03
2019-04-07T03:57:41.575Z,92.20
2019-04-07T04:00:55.103Z,91.22
2019-04-07T04:03:29.941Z,95.92
2019-04-07T04:06:00.996Z,93.70
2019-04-07T04:08:35.023Z,94.30
2019-04-07T04:11:11.689Z,88.75
2019-04-07T04:13:58.235Z,99.72
2019-04-07T04:16:28.537Z,101.50
2019-04-07T04:18:58.749Z,90.53
2019-04-07T04:21:28.851Z,97.05
2019-04-07T04:23:59.036Z,92.82
2019-04-07T04:26:29.104Z,92.88
2019-04-07T04:28:58.414Z,93.42
2019-04-07T04:31:27.588Z,101.67
2019-04-07T04:33:57.926Z,103.87
2019-04-07T04:36:27.327Z,94.10
2019-04-07T04:38:56.626Z,91.40
2019-04-07T04:41:25.797Z,94.62
2019-04-07T04:43:54.985Z,97.33
2019-04-07T04:46:24.295Z,93.52
2019-04-07T04:48:55.250Z,95.85
2019-04-07T04:51:24.431Z,92.22
2019-04-07T04:53:53.800Z,92.42
2019-04-07T04:56:23.030Z,96.70
2019-04-07T04:58:53.170Z,94.32
2019-04-07T05:01:23.031Z,98.03
2019-04-07T05:03:52.547Z,88.95
2019-04-07T05:06:21.849Z,90.45
2019-04-07T05:08:51.241Z,94.13
2019-04-07T05:11:21.167Z,93.42
2019-04-07T05:13:50.467Z,94.67
2019-04-07T05:16:19.810Z,86.85
2019-04-07T05:18:49.174Z,88.80
2019-04-07T05:21:18.563Z,97.75
2019-04-07T05:23:48.058Z,92.92
2019-04-07T05:26:18.025Z,91.60
2019-04-07T05:28:47.227Z,85.95
2019-04-07T05:31:16.439Z,91.37
2019-04-07T05:33:46.439Z,89.55
2019-04-07T05:36:15.868Z,93.12
2019-04-07T05:38:45.511Z,92.42
2019-04-07T05:41:14.964Z,90.53
2019-04-07T05:43:44.255Z,89.65
2019-04-07T05:46:13.858Z,86.35
2019-04-07T05:48:43.625Z,81.07
2019-04-07T05:51:13.390Z,86.63
2019-04-07T05:53:46.333Z,90.12
2019-04-07T05:56:13.643Z,91.35
2019-04-07T05:58:43.807Z,83.65
2019-04-07T06:01:13.053Z,87.67
2019-04-07T06:03:43.661Z,86.02
2019-04-07T06:06:13.471Z,86.10
2019-04-07T06:08:42.843Z,86.02
2019-04-07T06:11:12.582Z,82.17
2019-04-07T06:13:43.783Z,86.90
2019-04-07T06:16:12.970Z,86.82
2019-04-07T06:18:42.251Z,87.57
2019-04-07T06:21:14.144Z,82.95
2019-04-07T06:23:43.205Z,80.67
2019-04-07T06:26:13.075Z,78.02
2019-04-07T06:28:42.354Z,81.15
2019-04-07T06:31:11.776Z,85.77
2019-04-07T06:33:41.490Z,76.10
2019-04-07T06:36:11.515Z,86.40
2019-04-07T06:38:43.609Z,86.65
2019-04-07T06:41:11.686Z,79.05
2019-04-07T06:43:41.220Z,79.58
2019-04-07T06:46:17.657Z,84.67
2019-04-07T06:48:55.106Z,83.37
2019-04-07T06:51:29.204Z,77.22
2019-04-07T06:54:01.189Z,72.47
2019-04-07T06:56:43.795Z,81.15
2019-04-07T06:59:20.524Z,81.92
2019-04-07T07:01:51.401Z,80.57
2019-04-07T07:04:25.283Z,73.02
2019-04-07T07:07:08.877Z,76.72
2019-04-07T07:09:42.865Z,71.20
2019-04-07T07:12:22.463Z,76.67
2019-04-07T07:14:51.766Z,69.72
2019-04-07T07:17:32.235Z,72.87
2019-04-07T07:20:09.215Z,72.05
2019-04-07T07:22:55.064Z,76.67
2019-04-07T07:25:24.285Z,75.00
2019-04-07T07:27:53.527Z,78.17
2019-04-07T07:30:22.745Z,71.67
2019-04-07T07:32:52.000Z,70.47
2019-04-07T07:35:21.170Z,76.33
2019-04-07T07:37:50.990Z,71.90
2019-04-07T07:40:21.067Z,66.40
2019-04-07T07:42:51.133Z,73.35
2019-04-07T07:45:20.465Z,69.58
2019-04-07T07:47:53.183Z,68.65
2019-04-07T07:50:20.654Z,71.40
2019-04-07T07:52:53.379Z,65.55
2019-04-07T07:55:20.982Z,75.78
2019-04-07T07:57:54.325Z,72.55
2019-04-07T08:00:21.202Z,66.57
2019-04-07T08:02:52.507Z,70.62
2019-04-07T08:05:21.526Z,68.90
2019-04-07T08:07:51.209Z,69.22
2019-04-07T08:10:21.296Z,69.32
2019-04-07T08:12:51.923Z,65.05
2019-04-07T08:15:25.503Z,72.97
2019-04-07T08:17:52.138Z,60.70
2019-04-07T08:20:22.034Z,71.60
2019-04-07T08:22:51.546Z,66.33
2019-04-07T08:25:24.437Z,66.42
2019-04-07T08:27:51.856Z,59.80
2019-04-07T08:30:21.658Z,61.48
2019-04-07T08:32:50.844Z,72.37
2019-04-07T08:35:20.254Z,67.40
2019-04-07T08:37:50.067Z,63.85
2019-04-07T08:40:19.925Z,61.48
2019-04-07T08:42:50.187Z,59.42
2019-04-07T08:45:21.125Z,62.27
2019-04-07T08:47:51.716Z,62.62
2019-04-07T08:50:22.654Z,65.10
2019-04-07T08:52:52.232Z,62.38
2019-04-07T08:55:21.854Z,56.23
2019-04-07T08:57:51.765Z,59.40
2019-04-07T09:00:22.794Z,58.30
2019-04-07T09:03:01.643Z,60.98
2019-04-07T09:05:27.706Z,56.15
2019-04-07T09:07:55.146Z,58.25
2019-04-07T09:12:56.814Z,53.42
2019-04-07T09:15:28.245Z,57.27
2019-04-07T09:17:59.368Z,54.90
2019-04-07T09:20:36.157Z,55.98
2019-04-07T09:23:13.469Z,52.13
2019-04-07T09:25:47.305Z,54.23
2019-04-07T09:28:31.499Z,49.75
2019-04-07T09:31:03.593Z,51.10
2019-04-07T09:33:46.249Z,47.33
2019-04-07T09:36:31.592Z,49.45
2019-04-07T09:39:07.864Z,49.80
2019-04-07T09:41:45.078Z,44.80
2019-04-07T09:44:22.104Z,38.95
2019-04-07T09:46:55.767Z,38.78
2019-04-07T09:49:46.758Z,46.45
2019-04-07T09:52:20.873Z,45.52
2019-04-07T09:55:01.055Z,39.27
2019-04-07T09:57:50.701Z,42.13
2019-04-07T10:00:39.895Z,43.33
2019-04-07T10:03:27.004Z,38.48
2019-04-07T10:06:09.834Z,40.48
2019-04-07T10:08:43.171Z,36.48
2019-04-07T10:11:19.836Z,40.15
2019-04-07T10:13:53.617Z,39.20
2019-04-07T10:16:27.232Z,34.48
2019-04-07T10:19:06.673Z,35.63
2019-04-07T10:21:53.612Z,36.23
2019-04-07T10:24:27.241Z,35.17
2019-04-07T10:27:10.789Z,33.28
2019-04-07T10:29:44.954Z,33.20
2019-04-07T10:32:18.933Z,32.38
2019-04-07T10:35:05.926Z,31.68
2019-04-07T10:37:45.710Z,32.20
2019-04-07T10:40:24.427Z,27.98
2019-04-07T10:42:58.435Z,25.70
2019-04-07T10:45:29.645Z,27.25
2019-04-07T10:48:06.909Z,28.52
2019-04-07T10:50:53.527Z,30.60
2019-04-07T10:53:31.304Z,25.57
2019-04-07T10:56:08.886Z,24.52
2019-04-07T10:58:42.513Z,24.98
2019-04-07T11:01:28.989Z,23.12
2019-04-07T11:04:02.694Z,22.32
2019-04-07T11:06:50.166Z,26.70
2019-04-07T11:09:23.751Z,27.13
2019-04-07T11:11:54.816Z,23.73
2019-04-07T11:14:42.001Z,28.45
2019-04-07T11:17:12.846Z,24.32
2019-04-07T11:19:44.479Z,23.35
2019-04-07T11:22:31.771Z,27.27
2019-04-07T11:25:18.899Z,25.20
2019-04-07T11:28:05.962Z,30.08
2019-04-07T11:30:37.499Z,26.75
2019-04-07T11:33:11.749Z,22.22
2019-04-07T11:35:45.587Z,22.20
2019-04-07T11:38:34.312Z,19.30
2019-04-07T11:41:24.132Z,20.65
2019-04-07T11:43:56.454Z,17.27
2019-04-07T11:46:35.904Z,13.98
2019-04-07T11:49:19.506Z,15.88
2019-04-07T11:52:02.223Z,17.10
2019-04-07T11:54:38.909Z,14.47
2019-04-07T11:57:09.878Z,15.48
2019-04-07T11:59:46.551Z,21.37
2019-04-07T12:02:19.837Z,20.10
2019-04-07T12:04:55.888Z,18.07
2019-04-07T12:07:30.485Z,13.80
2019-04-07T12:10:17.891Z,16.42
2019-04-07T12:13:07.183Z,15.30
2019-04-07T12:15:56.080Z,17.80
2019-04-07T12:18:42.535Z,19.02
2019-04-07T12:21:29.811Z,18.27
2019-04-07T12:24:01.544Z,17.45
2019-04-07T12:26:47.354Z,21.33
2019-04-07T12:29:18.861Z,17.95
2019-04-07T12:31:59.660Z,16.32
2019-04-07T12:34:30.750Z,22.07
2019-04-07T12:37:19.201Z,15.03
2019-04-07T12:39:53.406Z,15.28
2019-04-07T12:42:24.307Z,15.88
2019-04-07T12:44:55.564Z,17.37
2019-04-07T12:47:43.044Z,21.15
2019-04-07T12:50:30.523Z,16.70
2019-04-07T12:53:02.779Z,13.85
2019-04-07T12:55:40.508Z,17.20
2019-04-07T12:58:19.931Z,19.67
2019-04-07T13:01:09.316Z,15.97
2019-04-07T13:03:41.154Z,16.32
2019-04-07T13:06:20.576Z,17.37
2019-04-07T13:09:00.740Z,16.75
2019-04-07T13:14:29.051Z,12.82
2019-04-07T13:17:01.661Z,16.17
2019-04-07T13:19:35.329Z,18.25
2019-04-07T13:22:06.745Z,15.30
2019-04-07T13:24:56.979Z,15.18
2019-04-07T13:27:26.502Z,21.27
2019-04-07T13:30:09.547Z,16.65
2019-04-07T13:32:59.239Z,14.10
2019-04-07T13:35:44.232Z,16.32
2019-04-07T13:38:18.077Z,15.23
2019-04-07T13:40:48.953Z,19.32
2019-04-07T13:43:31.334Z,15.45
2019-04-07T13:46:01.316Z,16.80
2019-04-07T13:48:32.336Z,13.03
2019-04-07T13:51:19.537Z,14.53
2019-04-07T13:53:59.553Z,14.68
2019-04-07T13:56:49.879Z,19.95
2019-04-07T13:59:19.332Z,14.63
2019-04-07T14:01:59.165Z,14.95
2019-04-07T14:04:36.102Z,12.90
2019-04-07T14:07:10.049Z,15.30
2019-04-07T14:09:41.672Z,12.85
2019-04-07T14:12:24.891Z,18.15
2019-04-07T14:15:05.215Z,13.48
2019-04-07T14:17:48.117Z,13.18
2019-04-07T14:20:19.335Z,17.10
2019-04-07T14:22:55.670Z,14.40
2019-04-07T14:25:47.061Z,14.68
2019-04-07T14:28:17.744Z,13.22
2019-04-07T14:31:05.456Z,13.45
2019-04-07T14:33:51.413Z,13.08
2019-04-07T14:36:31.513Z,15.38
2019-04-07T14:41:38.770Z,16.80
2019-04-07T14:44:15.188Z,17.98
2019-04-07T14:46:49.030Z,14.18
2019-04-07T14:49:22.796Z,13.28
2019-04-07T14:51:59.862Z,14.98
2019-04-07T14:54:46.449Z,14.07
2019-04-07T14:57:29.431Z,15.43
2019-04-07T15:00:03.470Z,15.50
2019-04-07T15:02:33.452Z,15.88
2019-04-07T15:05:06.073Z,16.50
2019-04-07T15:07:48.795Z,13.25
2019-04-07T15:10:26.429Z,15.35
2019-04-07T15:13:03.243Z,15.63
2019-04-07T15:15:32.549Z,17.73
2019-04-07T15:18:01.940Z,14.20
2019-04-07T15:20:31.231Z,16.23
2019-04-07T15:23:01.606Z,19.57
2019-04-07T15:25:31.435Z,14.87
2019-04-07T15:28:01.299Z,14.30
2019-04-07T15:30:31.115Z,15.03
2019-04-07T15:33:02.393Z,16.95
2019-04-07T15:35:31.752Z,15.88
2019-04-07T15:38:01.266Z,16.75
2019-04-07T15:40:34.042Z,13.60
2019-04-07T15:43:04.378Z,14.73
2019-04-07T15:45:33.353Z,16.35
2019-04-07T15:48:02.929Z,16.10
2019-04-07T15:50:35.469Z,15.85
2019-04-07T15:53:09.324Z,13.43
2019-04-07T15:55:47.838Z,18.23
2019-04-07T15:58:11.352Z,15.10
2019-04-07T16:00:52.660Z,14.47
2019-04-07T16:03:22.351Z,17.55
2019-04-07T16:05:56.229Z,14.25
2019-04-07T16:08:28.790Z,16.60
2019-04-07T16:10:56.562Z,16.52
2019-04-07T16:13:26.654Z,15.40
2019-04-07T16:18:28.447Z,14.13
2019-04-07T16:20:58.084Z,18.82
2019-04-07T16:23:36.440Z,15.38
2019-04-07T16:26:06.559Z,16.50
2019-04-07T16:28:38.899Z,17.12
2019-04-07T16:31:08.543Z,18.98
2019-04-07T16:33:43.978Z,18.05
2019-04-07T16:36:13.237Z,16.70
2019-04-07T16:38:43.188Z,17.07
2019-04-07T16:41:14.134Z,17.25
2019-04-07T16:43:43.515Z,13.90
2019-04-07T16:46:16.986Z,19.00
2019-04-07T16:48:43.760Z,16.87
2019-04-07T16:51:13.464Z,16.85
2019-04-07T16:53:43.380Z,20.10
2019-04-07T16:56:13.621Z,17.10
2019-04-07T16:58:43.670Z,21.37
2019-04-07T17:01:18.508Z,15.23
2019-04-07T17:03:48.662Z,17.95
2019-04-07T17:06:20.773Z,18.25
2019-04-07T17:08:51.511Z,20.10
2019-04-07T17:11:21.003Z,19.87
2019-04-07T17:13:50.302Z,16.93
2019-04-07T17:16:22.908Z,16.45
2019-04-07T17:18:51.084Z,18.98
2019-04-07T17:21:20.503Z,18.10
2019-04-07T17:23:53.317Z,16.40
2019-04-07T17:26:23.552Z,15.38
2019-04-07T17:28:52.655Z,19.05
2019-04-07T17:31:22.144Z,18.17
2019-04-07T17:33:52.115Z,20.82
2019-04-07T17:36:22.795Z,22.10
2019-04-07T17:38:54.033Z,22.22
2019-04-07T17:41:23.497Z,25.48
2019-04-07T17:44:00.982Z,21.20
2019-04-07T17:46:47.708Z,26.15
2019-04-07T17:49:23.352Z,19.40
2019-04-07T17:51:57.442Z,26.37
2019-04-07T17:54:31.162Z,21.07
2019-04-07T17:57:08.762Z,24.50
2019-04-07T17:59:49.317Z,17.27
2019-04-07T18:04:53.426Z,21.70
2019-04-07T18:07:30.032Z,23.40
2019-04-07T18:10:04.759Z,20.10
2019-04-07T18:12:45.390Z,22.17
2019-04-07T18:15:14.829Z,18.50
2019-04-07T18:17:56.272Z,22.15
2019-04-07T18:20:32.739Z,23.30
2019-04-07T18:23:32.638Z,22.87
2019-04-07T18:26:21.778Z,24.23
2019-04-07T18:29:01.842Z,22.07
2019-04-07T18:31:36.216Z,18.10
2019-04-07T18:34:25.156Z,21.33
2019-04-07T18:36:54.267Z,18.62
2019-04-07T18:39:27.832Z,21.93
2019-04-07T18:42:03.499Z,20.68
2019-04-07T18:44:38.634Z,26.75
2019-04-07T18:47:06.887Z,21.77
2019-04-07T18:49:40.923Z,23.12
2019-04-07T18:52:16.067Z,20.77
2019-04-07T18:54:47.611Z,22.80
2019-04-07T18:57:34.832Z,24.00
2019-04-07T19:00:23.410Z,20.57
2019-04-07T19:03:03.265Z,22.62
2019-04-07T19:05:52.069Z,24.77
2019-04-07T19:08:28.817Z,24.30
2019-04-07T19:11:10.665Z,23.35
2019-04-07T19:13:32.526Z,25.17
2019-04-07T19:16:19.548Z,27.17
2019-04-07T19:19:04.877Z,23.87
2019-04-07T19:21:47.010Z,24.75
2019-04-07T19:24:23.899Z,25.57
2019-04-07T19:26:56.175Z,27.20
2019-04-07T19:29:46.151Z,24.12
2019-04-07T19:32:17.983Z,28.12
2019-04-07T19:34:52.998Z,28.27
2019-04-07T19:37:32.714Z,25.72
2019-04-07T19:40:19.776Z,26.37
2019-04-07T19:42:59.681Z,27.48
2019-04-07T19:45:33.304Z,26.75
2019-04-07T19:48:08.378Z,29.60
2019-04-07T19:50:42.766Z,24.60
2019-04-07T19:53:32.653Z,26.15
2019-04-07T19:56:04.478Z,26.93
2019-04-07T19:58:38.631Z,29.37
2019-04-07T20:01:17.258Z,28.73
2019-04-07T20:03:49.546Z,26.42
2019-04-07T20:06:36.653Z,29.20
2019-04-07T20:09:15.465Z,32.70
2019-04-07T20:12:02.894Z,34.23
2019-04-07T20:14:47.372Z,32.98
2019-04-07T20:17:18.930Z,27.40
2019-04-07T20:19:59.850Z,28.35
2019-04-07T20:22:30.777Z,26.23
2019-04-07T20:25:20.418Z,28.62
2019-04-07T20:28:09.777Z,26.23
2019-04-07T20:30:56.684Z,26.20
2019-04-07T20:33:32.951Z,29.35
2019-04-07T20:36:23.750Z,25.88
2019-04-07T20:41:38.640Z,27.98
2019-04-07T20:44:25.842Z,26.57
2019-04-07T20:47:12.202Z,26.70
2019-04-07T20:50:00.087Z,32.78
2019-04-07T20:52:31.980Z,29.40
2019-04-07T20:55:15.581Z,35.78
2019-04-07T20:57:51.351Z,30.25
2019-04-07T21:00:38.270Z,30.55
2019-04-07T21:03:19.614Z,33.13
2019-04-07T21:05:42.676Z,32.90
2019-04-07T21:08:16.571Z,31.65
2019-04-07T21:11:07.501Z,27.65
2019-04-07T21:13:39.568Z,28.73
2019-04-07T21:16:16.636Z,28.42
2019-04-07T21:18:47.596Z,27.58
2019-04-07T21:21:37.472Z,33.90
2019-04-07T21:24:23.807Z,28.30
2019-04-07T21:27:03.878Z,28.10
2019-04-07T21:29:34.716Z,31.93
2019-04-07T21:32:09.861Z,31.73
2019-04-07T21:34:40.836Z,27.55
2019-04-07T21:37:20.316Z,32.90
2019-04-07T21:39:53.797Z,29.50
2019-04-07T21:42:30.774Z,30.48
2019-04-07T21:45:29.152Z,33.05
2019-04-07T21:48:09.580Z,28.00
2019-04-07T21:50:56.357Z,30.27
2019-04-07T21:53:45.467Z,29.70
2019-04-07T21:56:16.406Z,31.45
2019-04-07T21:58:52.003Z,29.20
2019-04-07T22:01:39.016Z,29.18
2019-04-07T22:04:10.702Z,28.05
2019-04-07T22:06:47.671Z,31.62
2019-04-07T22:09:21.269Z,28.62
2019-04-07T22:11:51.440Z,33.02
2019-04-07T22:14:20.919Z,30.65
2019-04-07T22:16:51.178Z,31.12
2019-04-07T22:19:20.502Z,33.73
2019-04-07T22:21:53.228Z,30.12
2019-04-07T22:24:20.787Z,33.10
2019-04-07T22:26:50.548Z,28.62
2019-04-07T22:29:20.691Z,29.35
2019-04-07T22:31:51.612Z,35.43
2019-04-07T22:34:20.914Z,31.12
2019-04-07T22:36:50.170Z,28.52
2019-04-07T22:39:19.410Z,28.70
2019-04-07T22:41:48.814Z,29.57
2019-04-07T22:44:20.354Z,28.85
2019-04-07T22:46:51.268Z,34.53
2019-04-07T22:49:20.063Z,26.97
2019-04-07T22:51:50.548Z,29.10
2019-04-07T22:54:20.027Z,31.42
2019-04-07T22:56:49.291Z,27.82
2019-04-07T22:59:18.522Z,30.15
2019-04-07T23:01:47.738Z,24.43
2019-04-07T23:04:16.957Z,24.85
2019-04-07T23:06:46.184Z,27.90
2019-04-07T23:09:15.571Z,31.77
2019-04-07T23:11:44.839Z,31.30
2019-04-07T23:14:14.043Z,31.37
2019-04-07T23:16:44.174Z,30.20
2019-04-07T23:19:14.331Z,29.18
2019-04-07T23:21:43.586Z,28.67
2019-04-07T23:24:12.975Z,31.52
2019-04-07T23:26:42.576Z,28.67
2019-04-07T23:29:12.153Z,30.43
2019-04-07T23:31:41.555Z,30.15
2019-04-07T23:34:10.793Z,25.45
2019-04-07T23:36:40.011Z,29.98
2019-04-07T23:39:09.934Z,26.80
2019-04-07T23:41:39.458Z,29.10
2019-04-07T23:44:09.419Z,31.73
2019-04-07T23:46:39.335Z,26.45
2019-04-07T23:49:08.681Z,26.80
2019-04-07T23:51:37.922Z,29.48
2019-04-07T23:54:14.333Z,30.95
2019-04-07T23:56:43.876Z,28.00
2019-04-07T23:59:13.170Z,26.62
